Time;durP1;ratioP1;P1;durP2;ratioP2;P2;SDS_P1;SDS_P2;PMS_P1;PMS_P2;Temp;Humidity;BMP_temperature;BMP_pressure;BME280_temperature;BME280_humidity;BME280_pressure;Samples;Min_cycle;Max_cycle;Signal;HPM_P1;HPM_P2
2021/12/03 00:00:54;;;;;;;8.68;4.55;;;;;;;3.63;100.00;98897.63;6702053;26;34336;-81
2021/12/03 00:03:58;;;;;;;9.13;4.85;;;;;;;3.52;100.00;98895.09;6700426;26;33925;-81
2021/12/03 00:07:00;;;;;;;6.93;4.15;;;;;;;3.55;100.00;98892.22;6700579;26;34410;-81
2021/12/03 00:10:06;;;;;;;7.95;3.80;;;;;;;3.59;100.00;98895.41;6700203;26;34428;-81
2021/12/03 00:13:09;;;;;;;7.35;4.10;;;;;;;3.48;100.00;98898.94;6700255;26;34759;-81
2021/12/03 00:16:13;;;;;;;7.85;3.90;;;;;;;3.42;100.00;98889.00;6699983;26;34380;-81
2021/12/03 00:19:16;;;;;;;8.70;3.92;;;;;;;3.46;100.00;98898.22;6700245;26;34423;-81
2021/12/03 00:22:19;;;;;;;9.93;4.05;;;;;;;3.38;100.00;98894.50;6699758;26;35366;-81
2021/12/03 00:25:22;;;;;;;8.95;3.70;;;;;;;3.40;100.00;98892.56;6700149;26;34496;-81
2021/12/03 00:28:31;;;;;;;9.07;3.92;;;;;;;3.35;100.00;98905.19;6699988;26;34748;-81
2021/12/03 00:31:34;;;;;;;6.37;3.55;;;;;;;3.31;100.00;98910.81;6699859;26;34120;-81
2021/12/03 00:34:37;;;;;;;9.27;3.78;;;;;;;3.25;100.00;98914.75;6700208;26;34671;-81
2021/12/03 00:37:41;;;;;;;6.50;3.92;;;;;;;3.19;100.00;98923.12;6699884;26;34252;-81
2021/12/03 00:40:44;;;;;;;7.03;3.45;;;;;;;3.23;100.00;98922.75;6701035;26;34527;-81
2021/12/03 00:43:51;;;;;;;7.80;3.50;;;;;;;3.19;100.00;98925.75;6702542;26;34880;-81
2021/12/03 00:46:54;;;;;;;4.80;3.17;;;;;;;3.18;100.00;98929.31;6700110;26;34612;-81
2021/12/03 00:49:56;;;;;;;5.85;3.37;;;;;;;3.23;100.00;98933.19;6700435;26;34188;-81
2021/12/03 00:53:00;;;;;;;7.43;3.90;;;;;;;3.28;100.00;98938.03;6700627;26;34109;-81
2021/12/03 00:56:03;;;;;;;6.50;3.70;;;;;;;3.17;100.00;98945.94;6703024;26;34736;-81
2021/12/03 00:59:07;;;;;;;6.43;3.70;;;;;;;3.07;100.00;98945.88;6701903;26;34371;-81
2021/12/03 01:02:14;;;;;;;7.35;3.72;;;;;;;3.12;100.00;98945.47;6699921;26;34246;-81
2021/12/03 01:05:17;;;;;;;7.05;3.65;;;;;;;3.06;100.00;98947.66;6699492;26;34758;-81
2021/12/03 01:08:20;;;;;;;8.00;4.10;;;;;;;3.04;100.00;98939.13;6699521;26;34358;-81
2021/12/03 01:11:24;;;;;;;7.40;3.85;;;;;;;3.01;100.00;98949.81;6699551;26;34079;-81
2021/12/03 01:14:26;;;;;;;10.77;4.62;;;;;;;2.97;100.00;98953.66;6699940;26;34670;-81
2021/12/03 01:17:29;;;;;;;7.68;3.95;;;;;;;3.17;100.00;98953.78;6699517;26;34155;-81
2021/12/03 01:20:33;;;;;;;7.62;4.00;;;;;;;3.12;100.00;98954.16;6699188;26;34160;-81
2021/12/03 01:23:38;;;;;;;7.00;3.72;;;;;;;3.02;100.00;98956.69;6699963;26;34190;-81
2021/12/03 01:26:43;;;;;;;5.62;3.80;;;;;;;2.98;100.00;98949.25;6699510;26;34080;-81
2021/12/03 01:29:46;;;;;;;8.43;3.80;;;;;;;2.96;100.00;98956.37;6701379;26;35133;-81
2021/12/03 01:32:51;;;;;;;7.60;3.83;;;;;;;3.04;100.00;98964.44;6699154;26;34933;-81
2021/12/03 01:35:54;;;;;;;9.00;4.20;;;;;;;3.08;100.00;98966.66;6699070;26;34288;-81
2021/12/03 01:38:57;;;;;;;6.55;3.72;;;;;;;3.07;100.00;98962.41;6699496;26;34279;-81
2021/12/03 01:42:00;;;;;;;7.70;3.90;;;;;;;3.01;100.00;98970.72;6699434;26;33825;-81
2021/12/03 01:45:02;;;;;;;6.95;3.62;;;;;;;3.00;100.00;98970.84;6699184;26;34376;-81
2021/12/03 01:48:08;;;;;;;8.93;3.42;;;;;;;3.14;100.00;98980.16;6699539;26;33778;-81
2021/12/03 01:51:11;;;;;;;5.72;3.35;;;;;;;3.19;100.00;98978.03;6699782;26;34928;-81
2021/12/03 01:54:14;;;;;;;9.23;3.50;;;;;;;3.26;100.00;98981.78;6699381;26;34799;-81
2021/12/03 01:57:17;;;;;;;8.25;3.87;;;;;;;3.23;100.00;98984.63;6699314;26;34420;-81
2021/12/03 02:00:33;;;;;;;7.70;3.83;;;;;;;3.17;100.00;98975.50;6699651;26;34090;-81
2021/12/03 02:03:41;;;;;;;8.57;4.30;;;;;;;3.39;100.00;98981.56;6699550;26;34873;-81
2021/12/03 02:06:44;;;;;;;9.98;4.22;;;;;;;3.42;100.00;98980.50;6700411;26;34141;-81
2021/12/03 02:09:47;;;;;;;7.60;4.43;;;;;;;3.29;100.00;98972.84;6699689;26;34854;-81
2021/12/03 02:12:51;;;;;;;8.00;4.30;;;;;;;3.22;100.00;98975.97;6699132;26;34301;-81
2021/12/03 02:16:00;;;;;;;11.48;4.60;;;;;;;3.26;100.00;98979.16;6699242;26;34324;-81
2021/12/03 02:19:04;;;;;;;11.18;4.53;;;;;;;3.23;100.00;98984.63;6699001;26;34575;-81
2021/12/03 02:22:10;;;;;;;9.27;4.53;;;;;;;3.26;100.00;98984.38;6699336;26;34565;-81
2021/12/03 02:25:20;;;;;;;7.28;3.92;;;;;;;3.22;100.00;98973.38;6700036;26;34505;-81
2021/12/03 02:28:25;;;;;;;7.57;4.10;;;;;;;3.24;100.00;98981.06;6699036;26;34827;-82
2021/12/03 02:31:28;;;;;;;10.57;4.40;;;;;;;3.40;100.00;98993.69;6699478;26;34511;-82
2021/12/03 02:34:31;;;;;;;10.60;4.20;;;;;;;3.52;100.00;98976.16;6700818;26;34314;-82
2021/12/03 02:37:34;;;;;;;14.13;5.75;;;;;;;3.58;100.00;98980.06;6700116;26;33948;-81
2021/12/03 02:40:37;;;;;;;13.88;6.62;;;;;;;3.55;100.00;98986.34;6701150;26;34173;-82
2021/12/03 02:43:40;;;;;;;13.82;6.25;;;;;;;3.57;100.00;99000.13;6700945;26;34376;-82
2021/12/03 02:46:44;;;;;;;19.40;8.00;;;;;;;3.55;100.00;99009.87;6701358;26;34530;-82
2021/12/03 02:49:47;;;;;;;18.08;7.97;;;;;;;3.48;100.00;99020.06;6699918;26;33922;-82
2021/12/03 02:52:50;;;;;;;18.85;8.77;;;;;;;3.53;100.00;99022.28;6700851;26;34406;-82
2021/12/03 02:55:53;;;;;;;19.60;8.80;;;;;;;3.53;100.00;99022.28;6700750;26;34645;-82
2021/12/03 02:58:56;;;;;;;20.35;8.77;;;;;;;3.51;100.00;99030.25;6699896;26;35564;-81
2021/12/03 03:02:00;;;;;;;18.95;8.50;;;;;;;3.54;100.00;99034.41;6699448;26;33984;-81
2021/12/03 03:05:30;;;;;;;20.37;9.70;;;;;;;3.68;100.00;99039.31;6700595;26;34443;-82
2021/12/03 03:08:34;;;;;;;22.98;11.00;;;;;;;3.71;100.00;99046.09;6700027;26;34679;-81
2021/12/03 03:11:36;;;;;;;25.55;12.60;;;;;;;3.65;100.00;99057.03;6699793;26;34065;-81
2021/12/03 03:14:50;;;;;;;25.42;13.45;;;;;;;3.75;100.00;99067.59;6699985;26;34276;-81
2021/12/03 03:17:53;;;;;;;25.62;13.20;;;;;;;3.72;100.00;99068.66;6701503;26;34023;-82
2021/12/03 03:21:00;;;;;;;25.33;13.77;;;;;;;3.67;100.00;99074.25;6701246;26;34314;-83
2021/12/03 03:24:04;;;;;;;28.38;14.73;;;;;;;3.64;100.00;99082.38;6699689;26;34399;-81
2021/12/03 03:27:10;;;;;;;28.30;15.07;;;;;;;3.59;100.00;99094.19;6699996;26;34343;-82
2021/12/03 03:30:15;;;;;;;29.33;14.73;;;;;;;3.59;100.00;99095.00;6700039;26;34153;-81
2021/12/03 03:33:25;;;;;;;28.77;16.17;;;;;;;3.51;100.00;99094.81;6700813;26;34955;-82
2021/12/03 03:36:32;;;;;;;27.50;15.25;;;;;;;3.49;100.00;99107.16;6701042;26;33990;-82
2021/12/03 03:39:36;;;;;;;29.10;15.65;;;;;;;3.55;100.00;99111.88;6699239;26;35524;-81
2021/12/03 03:42:38;;;;;;;28.62;16.17;;;;;;;3.53;100.00;99108.59;6701182;26;34167;-81
2021/12/03 03:45:42;;;;;;;27.02;14.95;;;;;;;3.47;100.00;99116.91;6702731;26;35255;-81
2021/12/03 03:48:48;;;;;;;27.33;14.05;;;;;;;3.50;100.00;99127.94;6700144;26;34083;-82
2021/12/03 03:52:13;;;;;;;28.15;15.82;;;;;;;3.52;100.00;99130.47;6700643;26;34369;-82
2021/12/03 03:55:18;;;;;;;29.15;15.55;;;;;;;3.50;100.00;99127.94;6699447;26;34318;-81
2021/12/03 03:58:21;;;;;;;27.40;14.50;;;;;;;3.53;100.00;99143.41;6700276;26;34058;-81
2021/12/03 04:01:24;;;;;;;27.55;15.07;;;;;;;3.52;100.00;99133.88;6699591;26;33647;-81
2021/12/03 04:04:27;;;;;;;32.28;14.95;;;;;;;3.48;100.00;99142.09;6699335;26;34640;-81
2021/12/03 04:07:30;;;;;;;29.92;15.43;;;;;;;3.57;100.00;99143.97;6700070;26;34258;-81
2021/12/03 04:10:34;;;;;;;28.23;15.32;;;;;;;3.51;100.00;99139.25;6699989;26;34135;-82
2021/12/03 04:13:38;;;;;;;26.73;14.98;;;;;;;3.45;100.00;99152.81;6699222;26;34537;-82
2021/12/03 04:16:41;;;;;;;25.75;14.63;;;;;;;3.46;100.00;99149.25;6680248;26;34707;-81
2021/12/03 04:19:44;;;;;;;26.83;14.55;;;;;;;3.43;100.00;99162.59;6699228;26;34139;-82
2021/12/03 04:22:48;;;;;;;25.08;14.18;;;;;;;3.39;100.00;99177.66;6700775;26;34263;-82
2021/12/03 04:25:51;;;;;;;29.80;14.98;;;;;;;3.37;100.00;99190.88;6699868;26;34597;-81
2021/12/03 04:28:56;;;;;;;27.23;15.02;;;;;;;3.30;100.00;99197.56;6699827;26;34583;-81
2021/12/03 04:31:59;;;;;;;30.40;15.50;;;;;;;3.33;100.00;99205.12;6700700;26;34261;-81
2021/12/03 04:35:02;;;;;;;26.12;14.93;;;;;;;3.27;100.00;99210.84;6699963;26;34301;-81
2021/12/03 04:38:08;;;;;;;24.90;12.98;;;;;;;3.28;100.00;99202.06;6698983;26;34224;-81
2021/12/03 04:41:13;;;;;;;25.90;13.85;;;;;;;3.26;100.00;99214.41;6699602;26;34766;-81
2021/12/03 04:44:16;;;;;;;26.52;13.70;;;;;;;3.18;100.00;99227.28;6699914;26;34145;-81
2021/12/03 04:47:20;;;;;;;24.55;13.35;;;;;;;3.23;100.00;99233.81;6700918;26;34115;-81
2021/12/03 04:50:25;;;;;;;25.65;13.35;;;;;;;3.30;100.00;99234.16;6700551;26;35060;-81
2021/12/03 04:53:35;;;;;;;26.92;14.32;;;;;;;3.22;100.00;99241.75;6700392;26;34901;-81
2021/12/03 04:56:39;;;;;;;26.40;13.48;;;;;;;3.21;100.00;99253.16;6700392;26;34602;-82
2021/12/03 04:59:41;;;;;;;25.52;13.93;;;;;;;3.32;100.00;99265.38;6700252;26;34399;-82
2021/12/03 05:02:45;;;;;;;26.37;12.88;;;;;;;3.25;100.00;99265.03;6699969;26;34078;-81
2021/12/03 05:05:54;;;;;;;23.98;12.48;;;;;;;3.33;100.00;99267.88;6700817;26;34355;-81
2021/12/03 05:08:57;;;;;;;25.15;12.70;;;;;;;3.37;100.00;99263.25;6700497;26;34161;-81
2021/12/03 05:12:01;;;;;;;25.83;13.15;;;;;;;3.30;100.00;99273.38;6700699;26;34858;-81
2021/12/03 05:15:04;;;;;;;25.20;12.88;;;;;;;3.30;100.00;99268.13;6700660;26;34930;-81
2021/12/03 05:18:12;;;;;;;27.75;13.57;;;;;;;3.29;100.00;99276.94;6701044;26;35403;-82
2021/12/03 05:21:15;;;;;;;26.45;13.50;;;;;;;3.42;100.00;99286.44;6700379;26;34048;-81
2021/12/03 05:24:18;;;;;;;27.73;14.38;;;;;;;3.38;100.00;99297.13;6700414;26;34931;-81
2021/12/03 05:27:20;;;;;;;25.80;13.85;;;;;;;3.34;100.00;99306.16;6699278;26;34929;-81
2021/12/03 05:30:24;;;;;;;27.98;13.75;;;;;;;3.28;100.00;99306.63;6701161;26;34384;-82
2021/12/03 05:33:29;;;;;;;25.75;13.18;;;;;;;3.29;100.00;99320.53;6700195;26;33965;-82
2021/12/03 05:36:35;;;;;;;27.65;13.68;;;;;;;3.20;100.00;99329.94;6700322;26;34214;-81
2021/12/03 05:39:45;;;;;;;27.33;12.02;;;;;;;3.30;100.00;99336.09;6700165;26;34166;-81
2021/12/03 05:42:51;;;;;;;28.15;13.77;;;;;;;3.23;100.00;99346.19;6701611;26;34376;-82
2021/12/03 05:45:53;;;;;;;27.67;13.82;;;;;;;3.24;100.00;99365.31;6701864;26;34159;-81
2021/12/03 05:48:56;;;;;;;26.80;13.27;;;;;;;3.11;100.00;99368.03;6699955;26;34337;-82
2021/12/03 05:51:59;;;;;;;28.20;12.88;;;;;;;3.17;100.00;99385.03;6700060;26;34724;-82
2021/12/03 05:55:03;;;;;;;27.92;12.23;;;;;;;3.06;100.00;99380.59;6700577;26;33979;-81
2021/12/03 05:58:06;;;;;;;25.37;11.30;;;;;;;3.05;100.00;99392.84;6701062;26;34748;-81
2021/12/03 06:01:17;;;;;;;25.42;11.80;;;;;;;3.02;100.00;99410.56;6701929;26;34512;-81
2021/12/03 06:04:20;;;;;;;25.65;11.02;;;;;;;2.92;100.00;99418.22;6704177;26;34648;-81
2021/12/03 06:07:24;;;;;;;25.52;11.15;;;;;;;3.00;100.00;99428.94;6699659;26;34673;-82
2021/12/03 06:10:28;;;;;;;25.35;11.60;;;;;;;2.94;97.48;99434.63;6699547;26;35061;-81
2021/12/03 06:13:31;;;;;;;26.37;10.77;;;;;;;2.86;97.75;99440.41;6700304;26;34566;-81
2021/12/03 06:16:34;;;;;;;22.42;9.52;;;;;;;2.85;97.53;99448.38;6699080;26;34225;-81
2021/12/03 06:19:37;;;;;;;23.50;10.10;;;;;;;2.78;97.11;99456.66;6699736;26;34316;-81
2021/12/03 06:22:40;;;;;;;24.67;9.85;;;;;;;2.72;95.98;99462.34;6702030;26;34070;-81
2021/12/03 06:25:43;;;;;;;22.45;8.68;;;;;;;2.73;92.83;99460.53;6704176;26;34516;-81
2021/12/03 06:28:47;;;;;;;21.45;8.48;;;;;;;2.71;92.66;99475.50;6702589;26;34471;-81
2021/12/03 06:31:49;;;;;;;18.70;7.97;;;;;;;2.70;91.30;99485.13;6699162;26;35279;-81
2021/12/03 06:34:52;;;;;;;19.83;8.00;;;;;;;2.59;91.94;99498.09;6703289;26;35324;-81
2021/12/03 06:37:58;;;;;;;17.70;6.57;;;;;;;2.53;91.96;99498.56;6681526;26;34904;-80
2021/12/03 06:41:01;;;;;;;19.92;7.60;;;;;;;2.54;90.72;99508.03;6699262;26;34225;-81
2021/12/03 06:44:08;;;;;;;19.73;6.60;;;;;;;2.54;89.81;99527.16;6700018;26;33958;-81
2021/12/03 06:47:11;;;;;;;18.80;7.03;;;;;;;2.63;85.91;99541.34;6699395;26;34847;-81
2021/12/03 06:50:18;;;;;;;20.88;7.37;;;;;;;2.60;86.52;99539.78;6698730;26;33714;-81
2021/12/03 06:53:27;;;;;;;17.33;6.47;;;;;;;2.59;85.70;99539.91;6700031;26;35450;-81
2021/12/03 06:56:44;;;;;;;17.08;5.82;;;;;;;2.55;84.91;99548.88;6699497;26;34287;-81
2021/12/03 06:59:47;;;;;;;17.58;6.12;;;;;;;2.54;83.97;99548.06;6698355;26;34237;-81
2021/12/03 07:02:49;;;;;;;17.70;5.43;;;;;;;2.45;84.28;99564.38;6699223;26;34897;-81
2021/12/03 07:05:53;;;;;;;12.60;5.20;;;;;;;2.43;84.11;99564.47;6698972;26;34406;-81
2021/12/03 07:08:55;;;;;;;16.15;5.12;;;;;;;2.39;84.01;99576.09;6698385;26;34227;-81
2021/12/03 07:11:58;;;;;;;14.32;4.65;;;;;;;2.41;83.35;99589.87;6697835;26;34839;-81
2021/12/03 07:15:01;;;;;;;14.18;4.82;;;;;;;2.40;83.89;99593.41;6698693;26;34230;-81
2021/12/03 07:18:04;;;;;;;15.80;5.05;;;;;;;2.33;81.84;99607.81;6698576;26;34279;-81
2021/12/03 07:21:07;;;;;;;16.83;4.80;;;;;;;2.29;82.65;99606.38;6699994;26;34145;-81
2021/12/03 07:24:11;;;;;;;14.90;4.95;;;;;;;2.28;82.37;99609.91;6703380;26;34634;-81
2021/12/03 07:27:14;;;;;;;18.98;5.22;;;;;;;2.31;81.38;99622.75;6701342;26;34886;-81
2021/12/03 07:30:19;;;;;;;13.68;4.75;;;;;;;2.31;82.08;99625.34;6701254;26;34497;-81
2021/12/03 07:33:22;;;;;;;13.00;4.60;;;;;;;2.28;82.13;99651.69;6701916;26;34480;-81
2021/12/03 07:36:26;;;;;;;13.10;4.78;;;;;;;2.29;81.65;99659.41;6700875;26;35108;-80
2021/12/03 07:39:32;;;;;;;43.90;9.05;;;;;;;2.27;81.36;99670.88;6700355;26;34433;-80
2021/12/03 07:42:35;;;;;;;14.40;4.10;;;;;;;2.30;82.59;99696.78;6700990;26;34390;-81
2021/12/03 07:45:39;;;;;;;12.85;4.25;;;;;;;2.30;81.08;99699.41;6701057;26;34636;-81
2021/12/03 07:48:46;;;;;;;14.73;4.57;;;;;;;2.39;81.45;99719.66;6701696;26;33911;-81
2021/12/03 07:51:51;;;;;;;13.65;4.43;;;;;;;2.41;79.40;99717.78;6701243;26;35483;-81
2021/12/03 07:54:56;;;;;;;12.82;4.28;;;;;;;2.54;79.33;99725.63;6700855;26;34342;-81
2021/12/03 07:57:59;;;;;;;12.70;4.10;;;;;;;2.50;78.93;99729.38;6701505;26;35232;-81
2021/12/03 08:01:03;;;;;;;11.90;3.97;;;;;;;2.55;77.89;99747.34;6700408;26;34351;-81
2021/12/03 08:04:08;;;;;;;11.95;4.60;;;;;;;2.49;78.53;99747.78;6700207;26;34569;-82
2021/12/03 08:07:14;;;;;;;13.18;4.50;;;;;;;2.44;79.22;99761.97;6701135;26;34155;-82
2021/12/03 08:10:18;;;;;;;17.12;4.75;;;;;;;2.29;82.14;99773.44;6700166;26;34748;-81
2021/12/03 08:13:21;;;;;;;14.77;4.75;;;;;;;2.23;83.45;99784.25;6702098;26;34625;-82
2021/12/03 08:16:25;;;;;;;14.35;4.62;;;;;;;2.27;82.93;99788.34;6699103;26;34399;-82
2021/12/03 08:19:33;;;;;;;14.70;4.70;;;;;;;2.41;81.26;99801.34;6699870;26;34472;-82
2021/12/03 08:22:36;;;;;;;9.47;4.43;;;;;;;2.28;83.10;99803.09;6700383;26;34519;-81
2021/12/03 08:25:47;;;;;;;11.25;3.80;;;;;;;2.32;81.54;99814.97;6700401;26;33893;-81
2021/12/03 08:28:50;;;;;;;12.65;3.90;;;;;;;2.33;79.46;99823.66;6700585;26;34297;-82
2021/12/03 08:31:52;;;;;;;9.00;3.75;;;;;;;2.34;78.32;99834.00;6699629;26;34461;-81
2021/12/03 08:34:55;;;;;;;12.40;4.30;;;;;;;2.19;80.19;99829.78;6700337;26;34007;-82
2021/12/03 08:37:58;;;;;;;11.85;3.85;;;;;;;2.23;79.27;99833.84;6701433;26;33934;-82
2021/12/03 08:41:01;;;;;;;14.25;3.90;;;;;;;2.31;77.92;99839.41;6701335;26;34252;-81
2021/12/03 08:44:04;;;;;;;11.50;3.83;;;;;;;2.36;78.39;99845.19;6700280;26;33773;-81
2021/12/03 08:47:07;;;;;;;8.57;3.40;;;;;;;2.37;76.98;99846.84;6701541;26;35097;-81
2021/12/03 08:50:16;;;;;;;11.05;3.53;;;;;;;2.43;75.48;99851.66;6701852;26;34400;-82
2021/12/03 08:56:41;;;;;;;10.95;3.85;;;;;;;2.52;74.61;99872.91;6684818;26;34175;-81
2021/12/03 08:59:44;;;;;;;10.07;3.70;;;;;;;2.54;74.38;99881.47;6701623;26;35087;-82
2021/12/03 09:02:47;;;;;;;8.45;3.30;;;;;;;2.62;73.40;99889.66;6707544;26;34080;-82
2021/12/03 09:05:52;;;;;;;12.52;3.67;;;;;;;2.62;72.13;99876.59;6702775;26;35371;-81
2021/12/03 09:08:55;;;;;;;7.93;2.92;;;;;;;2.53;72.10;99879.81;6700720;26;34178;-81
2021/12/03 09:12:00;;;;;;;9.02;3.22;;;;;;;2.62;70.45;99880.03;6701897;26;34846;-81
2021/12/03 09:15:08;;;;;;;7.70;2.80;;;;;;;2.69;70.45;99893.53;6701268;26;33873;-81
2021/12/03 09:21:35;;;;;;;10.23;3.40;;;;;;;2.71;69.68;99909.94;6700345;26;34096;-81
2021/12/03 09:24:38;;;;;;;8.13;2.78;;;;;;;2.82;70.61;99929.31;6701052;26;34489;-81
2021/12/03 09:27:44;;;;;;;8.43;2.97;;;;;;;2.96;68.66;99929.25;6701563;26;34816;-81
2021/12/03 09:30:48;;;;;;;11.05;3.00;;;;;;;2.86;68.22;99936.00;6700520;26;34082;-81
2021/12/03 09:33:51;;;;;;;11.10;3.45;;;;;;;2.84;68.73;99924.81;6700369;26;34289;-81
2021/12/03 09:36:54;;;;;;;9.25;3.12;;;;;;;2.97;68.39;99927.44;6702198;26;34031;-82
2021/12/03 09:40:03;;;;;;;8.05;3.10;;;;;;;3.09;68.25;99930.09;6700341;26;34198;-82
2021/12/03 09:43:07;;;;;;;5.32;2.85;;;;;;;2.88;67.00;99932.34;6700359;26;34455;-82
2021/12/03 09:49:35;;;;;;;8.55;3.40;;;;;;;3.08;66.44;99933.66;6699747;26;34876;-82
2021/12/03 09:53:12;;;;;;;9.05;2.90;;;;;;;3.10;65.82;99936.16;6699813;26;34130;-82
2021/12/03 09:56:01;;;;;;;12.70;3.20;;;;;;;3.21;65.71;99930.19;6701424;26;34072;-81
2021/12/03 10:02:47;;;;;;;8.57;2.58;;;;;;;3.40;63.99;99929.78;6700483;26;34910;-81
2021/12/03 10:19:31;;;;;;;5.93;3.00;;;;;;;3.21;63.52;99953.72;6701511;26;34173;-81
2021/12/03 10:29:24;;;;;;;14.73;4.05;;;;;;;2.94;67.54;99952.84;6699422;26;35223;-81
2021/12/03 10:46:02;;;;;;;9.32;3.37;;;;;;;3.24;64.90;99954.38;6702696;26;35545;-81
2021/12/03 10:49:11;;;;;;;12.18;3.42;;;;;;;3.40;66.63;99948.09;6700582;26;34278;-81
2021/12/03 11:55:48;;;;;;;5.97;2.90;;;;;;;3.20;59.84;100022.66;6702865;26;34566;-80
2021/12/03 12:45:29;;;;;;;9.70;3.80;;;;;;;3.30;58.95;100062.09;6703078;26;34216;-83
2021/12/03 13:12:31;;;;;;;11.75;4.12;;;;;;;2.34;69.04;100076.78;6702036;26;34037;-80
2021/12/03 13:15:57;;;;;;;12.55;4.28;;;;;;;2.43;69.57;100072.78;6703088;26;34071;-81
2021/12/03 13:26:22;;;;;;;10.77;4.07;;;;;;;2.43;71.53;100086.66;6701301;26;34743;-81
2021/12/03 13:56:27;;;;;;;11.25;4.40;;;;;;;2.46;70.53;100124.84;6700968;26;34749;-81
2021/12/03 14:04:17;;;;;;;12.55;4.20;;;;;;;2.21;70.66;100120.22;6706840;26;34291;-81
2021/12/03 14:49:45;;;;;;;9.10;4.03;;;;;;;1.70;75.82;100190.09;6702919;26;33960;-82
2021/12/03 14:56:16;;;;;;;15.85;4.50;;;;;;;1.65;74.29;100184.31;6703916;26;34005;-82
2021/12/03 14:59:27;;;;;;;11.52;4.35;;;;;;;1.44;76.73;100193.34;6704159;26;34763;-83
2021/12/03 15:05:51;;;;;;;11.93;4.68;;;;;;;1.37;76.58;100208.47;6702982;26;34554;-82
2021/12/03 15:08:57;;;;;;;13.10;4.35;;;;;;;1.21;76.78;100209.31;6703268;26;33997;-82
2021/12/03 15:19:14;;;;;;;12.50;4.10;;;;;;;1.06;76.95;100233.59;6701344;26;34385;-82
2021/12/03 15:25:16;;;;;;;16.08;4.50;;;;;;;0.83;76.17;100234.78;6700939;26;33644;-82
2021/12/03 15:32:27;;;;;;;11.90;3.70;;;;;;;0.64;75.99;100240.97;6701365;26;34382;-82
2021/12/03 15:39:06;;;;;;;9.93;3.97;;;;;;;0.87;72.63;100241.53;6701890;26;34325;-82
2021/12/03 15:55:57;;;;;;;11.27;4.18;;;;;;;0.28;75.06;100247.13;6701619;26;34264;-82
2021/12/03 16:09:00;;;;;;;12.30;4.35;;;;;;;0.41;72.81;100258.59;6701628;26;33981;-82
2021/12/03 16:25:09;;;;;;;11.82;4.30;;;;;;;0.44;71.53;100294.03;6701682;26;34576;-83
2021/12/03 16:45:35;;;;;;;14.70;5.05;;;;;;;-0.08;74.86;100306.06;6702783;26;35393;-82
2021/12/03 16:52:03;;;;;;;13.20;4.32;;;;;;;-0.14;74.62;100323.72;6701671;26;33709;-83
2021/12/03 16:55:24;;;;;;;13.85;4.68;;;;;;;-0.14;73.26;100327.16;6703084;26;34992;-82
2021/12/03 16:58:28;;;;;;;12.82;5.25;;;;;;;-0.33;75.31;100333.22;6702753;26;34249;-82
2021/12/03 17:05:13;;;;;;;15.80;5.25;;;;;;;-0.36;75.26;100343.75;6705710;26;34769;-82
2021/12/03 17:11:53;;;;;;;15.50;5.37;;;;;;;-0.29;73.88;100327.88;6702417;26;34202;-81
2021/12/03 17:48:01;;;;;;;15.80;5.55;;;;;;;-1.29;79.77;100350.38;6699824;26;34415;-82
2021/12/03 17:51:25;;;;;;;13.25;5.22;;;;;;;-1.17;78.00;100350.75;6699843;26;34266;-81
2021/12/03 18:01:02;;;;;;;14.13;5.18;;;;;;;-1.11;76.63;100373.88;6702086;26;34589;-83
2021/12/03 18:04:09;;;;;;;15.05;5.57;;;;;;;-1.04;75.92;100377.91;6701434;26;34236;-84
2021/12/03 18:10:50;;;;;;;15.40;5.55;;;;;;;-0.91;75.21;100367.84;6700255;26;34007;-82
2021/12/03 18:47:22;;;;;;;14.48;5.55;;;;;;;-1.27;74.56;100366.72;6700826;26;34215;-82
2021/12/03 18:54:03;;;;;;;15.18;5.00;;;;;;;-1.37;73.58;100380.16;6699592;26;34470;-82
2021/12/03 18:57:13;;;;;;;13.07;4.95;;;;;;;-1.32;73.35;100373.88;6700895;26;35311;-82
2021/12/03 19:00:16;;;;;;;12.90;5.70;;;;;;;-1.14;71.81;100371.41;6704091;26;34959;-82
2021/12/03 19:03:30;;;;;;;14.87;4.85;;;;;;;-1.11;71.19;100371.28;6699024;26;34044;-82
2021/12/03 19:10:11;;;;;;;11.73;4.60;;;;;;;-1.10;71.50;100372.97;6690812;26;33974;-82
2021/12/03 19:13:23;;;;;;;15.75;5.55;;;;;;;-1.05;72.00;100376.22;6700516;26;34370;-83
2021/12/03 19:16:30;;;;;;;11.07;4.53;;;;;;;-0.89;70.89;100373.81;6699747;26;34392;-82
2021/12/03 19:19:37;;;;;;;11.95;4.87;;;;;;;-1.07;71.70;100372.84;6701578;26;36179;-82
2021/12/03 19:22:40;;;;;;;14.40;5.12;;;;;;;-1.04;72.02;100374.47;6703655;26;34497;-83
2021/12/03 19:25:43;;;;;;;13.57;5.10;;;;;;;-1.14;71.69;100366.22;6703195;26;34428;-82
2021/12/03 19:28:49;;;;;;;14.50;5.12;;;;;;;-1.30;72.43;100366.03;6701995;26;34735;-83
2021/12/03 19:31:52;;;;;;;12.98;5.65;;;;;;;-1.13;72.22;100375.69;6702564;26;34275;-83
2021/12/03 19:34:56;;;;;;;16.37;6.05;;;;;;;-1.16;72.42;100375.81;6701909;26;34305;-82
2021/12/03 19:38:03;;;;;;;16.85;5.82;;;;;;;-1.20;72.95;100377.69;6702296;26;34193;-82
2021/12/03 19:41:18;;;;;;;16.98;5.50;;;;;;;-1.38;74.17;100381.91;6703221;26;34498;-82
2021/12/03 19:44:28;;;;;;;16.87;5.30;;;;;;;-1.45;74.42;100383.91;6702332;26;33830;-82
2021/12/03 19:47:45;;;;;;;12.63;5.28;;;;;;;-1.50;76.31;100379.81;6701980;26;35034;-82
2021/12/03 19:50:55;;;;;;;13.57;5.30;;;;;;;-1.59;75.43;100383.63;6702744;26;35158;-82
2021/12/03 19:53:59;;;;;;;16.95;5.18;;;;;;;-1.63;76.75;100384.66;6701849;26;33836;-82
2021/12/03 19:57:06;;;;;;;12.00;4.87;;;;;;;-1.61;76.36;100388.88;6701369;26;34098;-81
2021/12/03 20:00:09;;;;;;;14.70;5.45;;;;;;;-1.59;76.22;100388.81;6701729;26;34092;-81
2021/12/03 20:03:52;;;;;;;13.82;5.22;;;;;;;-1.51;75.20;100386.75;6694862;26;34146;-81
2021/12/03 20:06:55;;;;;;;14.55;5.47;;;;;;;-1.47;75.44;100384.88;6703015;26;34276;-82
2021/12/03 20:10:12;;;;;;;14.27;5.43;;;;;;;-1.33;75.56;100390.34;6710862;26;35450;-82
2021/12/03 20:13:21;;;;;;;14.32;5.60;;;;;;;-1.32;74.87;100397.25;6707599;26;35415;-83
2021/12/03 20:16:32;;;;;;;14.93;6.10;;;;;;;-1.33;75.31;100392.94;6703080;26;34451;-83
2021/12/03 20:19:38;;;;;;;17.08;6.55;;;;;;;-1.53;76.62;100406.72;6702156;26;34241;-83
2021/12/03 20:26:09;;;;;;;18.45;6.22;;;;;;;-1.51;77.51;100404.06;6701802;26;35684;-82
2021/12/03 20:29:20;;;;;;;17.12;6.45;;;;;;;-1.78;78.63;100402.50;6701457;26;34986;-82
2021/12/03 20:39:02;;;;;;;17.67;6.43;;;;;;;-1.96;80.50;100408.41;6704816;26;34401;-83
2021/12/03 20:42:09;;;;;;;19.30;6.55;;;;;;;-2.12;81.97;100395.19;6703815;26;34188;-82
2021/12/03 20:49:05;;;;;;;19.92;6.93;;;;;;;-2.36;83.68;100400.38;6703154;26;35345;-82
2021/12/03 21:11:45;;;;;;;21.12;7.15;;;;;;;-2.80;88.60;100401.03;6701018;26;34518;-82
2021/12/03 21:15:56;;;;;;;22.55;7.25;;;;;;;-2.85;89.61;100402.97;6703230;26;34233;-82
2021/12/03 21:24:36;;;;;;;18.77;7.72;;;;;;;-3.21;93.36;100388.63;6702858;26;34962;-82
2021/12/03 21:27:41;;;;;;;20.80;8.15;;;;;;;-3.24;94.63;100388.72;6704035;26;33797;-82
2021/12/03 21:44:03;;;;;;;21.67;8.45;;;;;;;-3.43;98.88;100402.25;6701592;26;34786;-82
2021/12/03 21:47:09;;;;;;;19.62;7.97;;;;;;;-3.54;98.86;100404.34;6702184;26;34512;-82
2021/12/03 21:50:12;;;;;;;21.98;8.60;;;;;;;-3.63;100.00;100395.16;6703220;26;34304;-82
2021/12/03 21:53:14;;;;;;;22.40;8.52;;;;;;;-3.64;100.00;100398.62;6702429;26;35381;-82
2021/12/03 21:56:21;;;;;;;21.62;8.02;;;;;;;-3.67;100.00;100392.72;6704174;26;34169;-82
2021/12/03 21:59:24;;;;;;;22.27;8.43;;;;;;;-3.76;100.00;100399.84;6700645;26;34832;-82
2021/12/03 22:02:27;;;;;;;22.55;8.80;;;;;;;-3.69;100.00;100400.50;6681459;26;34364;-82
2021/12/03 22:05:32;;;;;;;19.73;8.07;;;;;;;-3.64;100.00;100397.75;6701247;26;34143;-82
2021/12/03 22:08:37;;;;;;;21.17;9.05;;;;;;;-3.77;100.00;100403.31;6701244;26;34067;-82
2021/12/03 22:11:41;;;;;;;22.45;8.07;;;;;;;-3.75;100.00;100398.94;6701620;26;35003;-82
2021/12/03 22:14:45;;;;;;;21.45;9.00;;;;;;;-3.72;100.00;100401.44;6703654;26;34315;-82
2021/12/03 22:17:53;;;;;;;22.48;8.93;;;;;;;-3.76;100.00;100399.84;6707749;26;33969;-82
2021/12/03 22:20:59;;;;;;;21.00;8.68;;;;;;;-3.75;100.00;100396.34;6709814;26;34561;-82
2021/12/03 22:24:02;;;;;;;20.80;9.35;;;;;;;-3.70;100.00;100395.38;6709214;26;35224;-82
2021/12/03 22:27:06;;;;;;;21.62;8.70;;;;;;;-3.63;100.00;100389.97;6705466;26;35341;-82
2021/12/03 22:30:09;;;;;;;22.83;9.48;;;;;;;-3.72;100.00;100391.09;6701100;26;34429;-82